createdAt,value
2022-09-05T00:01:01.020Z,14.80
2022-09-05T00:03:36.810Z,14.70
2022-09-05T00:06:11.117Z,14.70
2022-09-05T00:08:57.154Z,14.70
2022-09-05T00:11:42.887Z,14.60
2022-09-05T00:15:14.502Z,14.60
2022-09-05T00:17:45.887Z,14.60
2022-09-05T00:24:21.160Z,14.60
2022-09-05T00:24:34.360Z,14.60
2022-09-05T00:26:36.726Z,14.50
2022-09-05T00:30:30.692Z,14.50
2022-09-05T00:32:42.256Z,14.50
2022-09-05T00:35:31.581Z,14.60
2022-09-05T00:37:58.942Z,14.50
2022-09-05T00:40:35.779Z,14.50
2022-09-05T00:43:08.318Z,14.50
2022-09-05T00:45:38.625Z,14.50
2022-09-05T00:48:13.640Z,14.50
2022-09-05T00:51:07.267Z,14.50
2022-09-05T00:53:51.610Z,14.40
2022-09-05T00:56:27.045Z,14.40
2022-09-05T00:59:20.485Z,14.40
2022-09-05T01:01:58.355Z,14.40
2022-09-05T01:04:51.246Z,14.30
2022-09-05T01:07:24.290Z,14.40
2022-09-05T01:10:04.503Z,14.40
2022-09-05T01:12:40.812Z,14.40
2022-09-05T01:15:27.091Z,14.40
2022-09-05T01:18:09.679Z,14.40
2022-09-05T01:21:03.762Z,14.40
2022-09-05T01:23:31.002Z,14.40
2022-09-05T01:26:17.517Z,14.40
2022-09-05T01:29:18.247Z,14.40
2022-09-05T01:32:11.979Z,14.30
2022-09-05T01:34:51.187Z,14.30
2022-09-05T01:37:44.773Z,14.30
2022-09-05T01:40:20.870Z,14.20
2022-09-05T01:43:18.571Z,14.10
2022-09-05T01:46:14.256Z,14.10
2022-09-05T01:48:54.061Z,14.10
2022-09-05T01:51:35.831Z,14.10
2022-09-05T01:54:30.941Z,14.10
2022-09-05T01:57:31.677Z,14.10
2022-09-05T02:00:12.499Z,14.00
2022-09-05T02:03:01.530Z,14.00
2022-09-05T02:05:51.796Z,14.00
2022-09-05T02:08:46.925Z,13.90
2022-09-05T02:11:14.866Z,13.90
2022-09-05T02:14:04.385Z,13.90
2022-09-05T02:16:38.808Z,13.90
2022-09-05T02:19:09.165Z,13.90
2022-09-05T02:22:06.849Z,13.90
2022-09-05T02:24:39.641Z,13.80
2022-09-05T02:27:46.151Z,13.70
2022-09-05T02:30:24.745Z,13.60
2022-09-05T02:33:14.227Z,13.60
2022-09-05T02:35:47.645Z,13.60
2022-09-05T02:41:20.207Z,13.50
2022-09-05T02:45:07.730Z,13.50
2022-09-05T02:45:10.682Z,13.50
2022-09-05T02:47:49.798Z,13.40
2022-09-05T02:53:31.679Z,13.40
2022-09-05T02:57:26.609Z,13.40
2022-09-05T02:57:42.315Z,13.40
2022-09-05T02:59:30.968Z,13.40
2022-09-05T03:02:26.425Z,13.40
2022-09-05T03:05:12.930Z,13.30
2022-09-05T03:07:40.185Z,13.30
2022-09-05T03:10:53.706Z,13.30
2022-09-05T03:13:48.828Z,13.30
2022-09-05T03:16:30.833Z,13.30
2022-09-05T03:19:46.359Z,13.30
2022-09-05T03:22:53.062Z,13.30
2022-09-05T03:25:43.327Z,13.40
2022-09-05T03:28:31.736Z,13.30
2022-09-05T03:31:22.472Z,13.30
2022-09-05T03:34:16.281Z,13.20
2022-09-05T03:37:05.227Z,13.20
2022-09-05T03:40:00.774Z,13.10
2022-09-05T03:43:29.812Z,13.10
2022-09-05T03:46:02.794Z,13.10
2022-09-05T03:48:53.170Z,13.00
2022-09-05T03:57:07.218Z,13.10
2022-09-05T03:57:16.514Z,13.10
2022-09-05T03:58:16.541Z,13.10
2022-09-05T04:01:17.542Z,13.00
2022-09-05T04:08:10.116Z,13.00
2022-09-05T04:08:23.831Z,13.00
2022-09-05T04:09:52.297Z,12.90
2022-09-05T04:12:49.278Z,12.90
2022-09-05T04:15:36.822Z,12.90
2022-09-05T04:18:33.741Z,12.80
2022-09-05T04:21:18.413Z,12.90
2022-09-05T04:24:00.426Z,12.80
2022-09-05T04:27:15.826Z,12.80
2022-09-05T04:29:49.470Z,12.90
2022-09-05T04:32:39.958Z,12.80
2022-09-05T04:35:34.857Z,12.80
2022-09-05T04:38:14.843Z,12.80
2022-09-05T04:41:00.957Z,12.80
2022-09-05T04:43:40.220Z,12.80
2022-09-05T04:46:30.837Z,12.80
2022-09-05T04:49:24.421Z,12.80
2022-09-05T04:52:00.324Z,12.70
2022-09-05T04:54:37.270Z,12.70
2022-09-05T04:57:17.641Z,12.70
2022-09-05T05:01:54.458Z,12.70
2022-09-05T05:06:08.546Z,12.70
2022-09-05T05:06:20.304Z,12.70
2022-09-05T05:08:45.194Z,12.70
2022-09-05T05:17:58.968Z,12.70
2022-09-05T05:18:14.834Z,12.70
2022-09-05T05:18:15.140Z,12.60
2022-09-05T05:20:39.453Z,12.70
2022-09-05T05:22:48.711Z,12.80
2022-09-05T05:25:18.075Z,12.80
2022-09-05T05:28:24.327Z,12.80
2022-09-05T05:31:12.713Z,12.80
2022-09-05T05:33:40.142Z,12.90
2022-09-05T05:36:09.902Z,13.00
2022-09-05T05:38:45.923Z,13.00
2022-09-05T05:41:18.498Z,13.00
2022-09-05T05:43:46.777Z,13.10
2022-09-05T05:46:26.823Z,13.10
2022-09-05T05:48:57.355Z,13.10
2022-09-05T05:51:54.855Z,13.20
2022-09-05T05:54:29.399Z,13.10
2022-09-05T05:57:25.001Z,13.20
2022-09-05T06:00:05.005Z,13.30
2022-09-05T06:03:12.011Z,13.30
2022-09-05T06:06:08.387Z,13.30
2022-09-05T06:11:58.419Z,13.40
2022-09-05T06:15:02.502Z,13.50
2022-09-05T06:15:13.281Z,13.60
2022-09-05T06:18:01.870Z,13.70
2022-09-05T06:22:05.371Z,13.80
2022-09-05T06:23:53.945Z,14.00
2022-09-05T06:26:41.402Z,14.00
2022-09-05T06:29:17.333Z,14.20
2022-09-05T06:32:04.875Z,14.20
2022-09-05T06:34:58.105Z,14.40
2022-09-05T06:37:47.730Z,14.50
2022-09-05T06:40:32.256Z,14.60
2022-09-05T06:43:15.255Z,14.60
2022-09-05T06:46:01.244Z,14.80
2022-09-05T06:49:30.579Z,14.90
2022-09-05T06:51:37.763Z,15.00
2022-09-05T06:54:41.439Z,15.10
2022-09-05T06:57:23.667Z,15.20
2022-09-05T07:00:22.155Z,15.30
2022-09-05T07:03:14.730Z,15.40
2022-09-05T07:06:08.726Z,15.50
2022-09-05T07:09:08.485Z,15.60
2022-09-05T07:11:42.076Z,15.70
2022-09-05T07:14:21.397Z,15.80
2022-09-05T07:16:58.977Z,15.80
2022-09-05T07:19:36.230Z,15.90
2022-09-05T07:22:29.549Z,16.00
2022-09-05T07:25:09.160Z,16.00
2022-09-05T07:28:26.592Z,16.10
2022-09-05T07:30:55.521Z,16.20
2022-09-05T07:33:27.356Z,16.30
2022-09-05T07:35:55.176Z,16.40
2022-09-05T07:38:50.243Z,16.40
2022-09-05T07:41:20.099Z,16.50
2022-09-05T07:43:49.205Z,16.60
2022-09-05T07:46:25.964Z,16.70
2022-09-05T07:49:16.196Z,16.80
2022-09-05T07:56:49.542Z,17.00
2022-09-05T07:57:01.604Z,17.10
2022-09-05T07:57:51.642Z,17.20
2022-09-05T08:00:28.958Z,17.30
2022-09-05T08:03:03.165Z,17.40
2022-09-05T08:05:37.329Z,17.50
2022-09-05T08:08:08.810Z,17.60
2022-09-05T08:11:24.934Z,17.70
2022-09-05T08:13:40.026Z,17.80
2022-09-05T08:16:12.819Z,17.90
2022-09-05T08:19:07.298Z,18.00
2022-09-05T08:21:42.402Z,18.10
2022-09-05T08:24:16.918Z,18.10
2022-09-05T08:26:49.570Z,18.20
2022-09-05T08:29:43.117Z,18.30
2022-09-05T08:32:23.738Z,18.40
2022-09-05T08:35:25.287Z,18.50
2022-09-05T08:37:52.632Z,18.60
2022-09-05T08:40:29.269Z,18.60
2022-09-05T08:45:52.094Z,18.70
2022-09-05T08:46:46.478Z,18.70
2022-09-05T08:49:37.004Z,18.80
2022-09-05T08:52:21.299Z,18.90
2022-09-05T08:55:07.688Z,19.00
2022-09-05T08:58:06.085Z,19.10
2022-09-05T09:00:37.905Z,19.30
2022-09-05T09:03:28.212Z,19.40
2022-09-05T09:06:13.285Z,19.60
2022-09-05T09:09:05.371Z,19.70
2022-09-05T09:11:34.360Z,19.80
2022-09-05T09:14:30.788Z,20.00
2022-09-05T09:17:23.142Z,20.10
2022-09-05T09:20:15.999Z,20.20
2022-09-05T09:22:52.219Z,20.30
2022-09-05T09:25:36.578Z,20.50
2022-09-05T09:28:48.539Z,20.50
2022-09-05T09:31:30.085Z,20.80
2022-09-05T09:34:18.424Z,21.00
2022-09-05T09:36:57.447Z,21.10
2022-09-05T09:39:38.802Z,21.20
2022-09-05T09:42:45.442Z,21.30
2022-09-05T09:45:31.602Z,21.50
2022-09-05T09:48:11.107Z,21.60
2022-09-05T09:51:06.575Z,21.70
2022-09-05T09:54:04.567Z,21.70
2022-09-05T09:56:59.342Z,21.90
2022-09-05T09:59:57.715Z,22.00
2022-09-05T10:07:53.165Z,22.00
2022-09-05T10:10:35.371Z,22.00
2022-09-05T10:10:45.889Z,22.10
2022-09-05T10:12:00.971Z,22.10
2022-09-05T10:15:03.158Z,22.20
2022-09-05T10:18:15.784Z,22.30
2022-09-05T10:21:13.850Z,22.30
2022-09-05T10:24:04.594Z,22.40
2022-09-05T10:26:50.505Z,22.50
2022-09-05T10:29:42.348Z,22.60
2022-09-05T10:35:07.489Z,22.70
2022-09-05T10:35:27.889Z,22.80
2022-09-05T10:38:18.802Z,22.80
2022-09-05T10:41:19.949Z,22.80
2022-09-05T10:43:42.887Z,22.90
2022-09-05T10:46:49.421Z,22.90
2022-09-05T10:49:16.567Z,22.90
2022-09-05T10:52:22.222Z,23.00
2022-09-05T10:55:14.118Z,23.10
2022-09-05T10:57:45.898Z,23.20
2022-09-05T11:02:22.515Z,23.30
2022-09-05T11:03:35.084Z,23.40
2022-09-05T11:06:09.012Z,23.50
2022-09-05T11:08:40.569Z,23.60
2022-09-05T11:11:26.103Z,23.60
2022-09-05T11:14:01.750Z,23.70
2022-09-05T11:16:39.720Z,23.70
2022-09-05T11:19:13.993Z,23.80
2022-09-05T11:22:05.200Z,23.80
2022-09-05T11:24:55.827Z,23.80
2022-09-05T11:27:33.461Z,23.90
2022-09-05T11:30:28.872Z,24.00
2022-09-05T11:39:58.915Z,24.00
2022-09-05T11:40:02.465Z,24.10
2022-09-05T11:40:02.467Z,24.00
2022-09-05T11:42:06.558Z,24.20
2022-09-05T11:45:12.758Z,24.30
2022-09-05T11:47:44.787Z,24.30
2022-09-05T11:50:38.332Z,24.30
2022-09-05T11:53:44.950Z,24.30
2022-09-05T11:56:31.622Z,24.50
2022-09-05T12:02:49.527Z,24.50
2022-09-05T12:05:48.335Z,24.60
2022-09-05T12:08:53.042Z,24.80
2022-09-05T12:11:43.646Z,24.80
2022-09-05T12:14:54.955Z,24.80
2022-09-05T12:17:47.416Z,24.80
2022-09-05T12:20:43.195Z,24.80
2022-09-05T12:23:53.679Z,24.80
2022-09-05T12:27:42.551Z,24.80
2022-09-05T12:29:45.565Z,24.90
2022-09-05T12:33:40.814Z,25.00
2022-09-05T12:36:10.579Z,24.90
2022-09-05T12:41:01.225Z,25.00
2022-09-05T12:41:37.661Z,24.40
2022-09-05T12:41:44.626Z,25.10
2022-09-05T12:44:44.916Z,25.30
2022-09-05T12:47:17.170Z,25.20
2022-09-05T12:50:14.066Z,25.20
2022-09-05T12:52:46.487Z,25.20
2022-09-05T12:55:20.230Z,25.20
2022-09-05T13:02:56.639Z,25.20
2022-09-05T13:03:06.704Z,25.30
2022-09-05T13:03:53.503Z,25.30
2022-09-05T13:06:30.194Z,25.30
2022-09-05T13:09:23.762Z,25.30
2022-09-05T13:14:57.073Z,25.30
2022-09-05T13:15:21.815Z,25.30
2022-09-05T13:18:01.833Z,25.30
2022-09-05T13:20:44.773Z,25.30
2022-09-05T13:23:14.830Z,25.30
2022-09-05T13:25:43.529Z,25.20
2022-09-05T13:28:12.668Z,25.10
2022-09-05T13:35:11.024Z,24.90
2022-09-05T13:38:10.928Z,24.80
2022-09-05T13:38:15.038Z,24.90
2022-09-05T13:39:28.242Z,25.10
2022-09-05T13:41:59.537Z,25.20
2022-09-05T13:44:28.242Z,25.30
2022-09-05T13:46:59.716Z,25.40
2022-09-05T13:49:43.399Z,25.30
2022-09-05T13:52:16.704Z,25.30
2022-09-05T13:55:12.043Z,25.40
2022-09-05T13:57:46.437Z,25.30
2022-09-05T14:00:27.346Z,25.30
2022-09-05T14:03:41.024Z,25.30
2022-09-05T14:06:45.523Z,25.20
2022-09-05T14:12:37.238Z,24.80
2022-09-05T14:15:25.155Z,24.80
2022-09-05T14:18:19.869Z,24.90
2022-09-05T14:21:18.095Z,24.90
2022-09-05T14:23:56.299Z,25.00
2022-09-05T14:26:33.817Z,25.00
2022-09-05T14:29:14.570Z,25.00
2022-09-05T14:37:34.568Z,25.10
2022-09-05T14:37:44.073Z,25.00
2022-09-05T14:38:05.821Z,25.10
2022-09-05T14:40:55.710Z,25.10
2022-09-05T14:43:34.934Z,25.10
2022-09-05T14:46:29.887Z,25.10
2022-09-05T14:49:01.394Z,25.00
2022-09-05T14:51:39.615Z,24.90
2022-09-05T14:54:13.177Z,24.90
2022-09-05T14:58:19.597Z,24.90
2022-09-05T15:02:42.472Z,24.80
2022-09-05T15:03:00.657Z,24.80
2022-09-05T15:05:29.056Z,24.80
2022-09-05T15:08:04.494Z,24.70
2022-09-05T15:12:15.235Z,24.50
2022-09-05T15:13:38.602Z,24.40
2022-09-05T15:16:09.855Z,24.30
2022-09-05T15:18:44.543Z,24.10
2022-09-05T15:21:34.270Z,23.90
2022-09-05T15:24:17.395Z,23.80
2022-09-05T15:26:53.412Z,23.70
2022-09-05T15:29:23.824Z,23.50
2022-09-05T15:31:53.331Z,23.40
2022-09-05T15:34:34.898Z,23.30
2022-09-05T15:37:36.805Z,23.20
2022-09-05T15:40:22.840Z,23.10
2022-09-05T15:42:55.275Z,23.00
2022-09-05T15:45:35.239Z,23.00
2022-09-05T15:48:18.353Z,23.00
2022-09-05T15:50:53.146Z,23.00
2022-09-05T15:53:29.027Z,22.90
2022-09-05T15:56:25.221Z,22.90
2022-09-05T15:58:55.172Z,22.90
2022-09-05T16:01:59.426Z,22.90
2022-09-05T16:06:53.843Z,22.80
2022-09-05T16:10:34.102Z,22.80
2022-09-05T16:10:41.915Z,22.80
2022-09-05T16:12:52.847Z,22.70
2022-09-05T16:21:06.643Z,22.70
2022-09-05T16:23:19.843Z,22.70
2022-09-05T16:23:26.466Z,22.70
2022-09-05T16:24:13.253Z,22.60
2022-09-05T16:26:42.182Z,22.60
2022-09-05T16:29:26.122Z,22.50
2022-09-05T16:32:02.108Z,22.40
2022-09-05T16:34:32.570Z,22.40
2022-09-05T16:37:08.310Z,22.30
2022-09-05T16:39:38.950Z,22.30
2022-09-05T16:42:17.166Z,22.30
2022-09-05T16:45:14.170Z,22.20
2022-09-05T16:47:47.435Z,22.20
2022-09-05T16:50:24.263Z,22.10
2022-09-05T16:52:53.704Z,22.10
2022-09-05T16:55:42.900Z,22.00
2022-09-05T16:58:23.441Z,22.00
2022-09-05T17:01:19.913Z,21.90
2022-09-05T17:03:54.342Z,21.90
2022-09-05T17:06:26.377Z,21.80
2022-09-05T17:08:58.201Z,21.70
2022-09-05T17:11:44.427Z,21.70
2022-09-05T17:14:35.921Z,21.60
2022-09-05T17:17:44.039Z,21.60
2022-09-05T17:20:09.342Z,21.50
2022-09-05T17:26:20.291Z,21.40
2022-09-05T17:29:23.474Z,21.30
2022-09-05T17:29:26.615Z,21.40
2022-09-05T17:31:54.301Z,21.30
2022-09-05T17:34:29.262Z,21.20
2022-09-05T17:37:11.848Z,21.10
2022-09-05T17:39:46.916Z,21.00
2022-09-05T17:42:32.213Z,20.90
2022-09-05T17:45:30.342Z,20.90
2022-09-05T17:47:57.979Z,20.80
2022-09-05T17:50:25.217Z,20.70
2022-09-05T17:53:26.602Z,20.60
2022-09-05T17:55:55.022Z,20.50
2022-09-05T17:58:49.388Z,20.40
2022-09-05T18:01:24.044Z,20.30
2022-09-05T18:04:05.468Z,20.20
2022-09-05T18:06:51.042Z,20.20
2022-09-05T18:09:48.277Z,20.10
2022-09-05T18:13:13.458Z,20.00
2022-09-05T18:15:31.720Z,19.90
2022-09-05T18:18:05.414Z,19.90
2022-09-05T18:20:55.750Z,19.80
2022-09-05T18:23:46.592Z,19.70
2022-09-05T18:26:23.487Z,19.70
2022-09-05T18:29:05.934Z,19.60
2022-09-05T18:31:42.516Z,19.50
2022-09-05T18:34:14.045Z,19.50
2022-09-05T18:36:48.746Z,19.40
2022-09-05T18:39:37.545Z,19.30
2022-09-05T18:42:33.953Z,19.30
2022-09-05T18:45:15.064Z,19.20
2022-09-05T18:47:50.933Z,19.20
2022-09-05T18:50:26.681Z,19.10
2022-09-05T18:53:05.689Z,19.10
2022-09-05T18:56:12.843Z,19.00
2022-09-05T18:59:09.503Z,19.00
2022-09-05T19:02:02.587Z,18.90
2022-09-05T19:04:41.606Z,18.90
2022-09-05T19:07:22.623Z,18.80
2022-09-05T19:09:58.502Z,18.80
2022-09-05T19:12:32.922Z,18.70
2022-09-05T19:15:08.483Z,18.70
2022-09-05T19:17:41.314Z,18.60
2022-09-05T19:20:31.766Z,18.50
2022-09-05T19:23:13.274Z,18.50
2022-09-05T19:25:44.861Z,18.40
2022-09-05T19:36:51.312Z,18.40
2022-09-05T19:37:11.972Z,18.30
2022-09-05T19:37:13.092Z,18.40
2022-09-05T19:37:39.700Z,18.30
2022-09-05T19:46:06.847Z,18.20
2022-09-05T19:47:28.495Z,18.20
2022-09-05T19:47:34.071Z,18.20
2022-09-05T19:48:28.434Z,18.20
2022-09-05T19:50:57.043Z,18.10
2022-09-05T19:53:24.750Z,18.00
2022-09-05T19:55:53.666Z,18.00
2022-09-05T19:58:22.247Z,18.00
2022-09-05T20:01:02.718Z,18.00
2022-09-05T20:03:38.677Z,18.00
2022-09-05T20:06:29.429Z,18.00
2022-09-05T20:09:17.093Z,17.90
2022-09-05T20:11:54.683Z,17.90
2022-09-05T20:14:28.975Z,17.80
2022-09-05T20:17:17.181Z,17.80
2022-09-05T20:19:45.011Z,17.70
2022-09-05T20:22:47.753Z,17.70
2022-09-05T20:25:05.198Z,17.60
2022-09-05T20:27:32.778Z,17.50
2022-09-05T20:30:10.552Z,17.50
2022-09-05T20:32:40.878Z,17.50
2022-09-05T20:39:41.051Z,17.50
2022-09-05T20:43:23.652Z,17.40
2022-09-05T20:43:24.419Z,17.40
2022-09-05T20:43:54.716Z,17.50
2022-09-05T20:49:57.574Z,17.40
2022-09-05T20:54:06.455Z,17.40
2022-09-05T20:54:17.610Z,17.40
2022-09-05T20:55:40.176Z,17.30
2022-09-05T20:58:16.102Z,17.20
2022-09-05T21:01:20.102Z,17.10
2022-09-05T21:03:45.384Z,17.10
2022-09-05T21:06:27.305Z,17.00
2022-09-05T21:08:55.939Z,17.00
2022-09-05T21:11:33.222Z,17.00
2022-09-05T21:14:03.402Z,17.00
2022-09-05T21:16:33.598Z,16.90
2022-09-05T21:19:00.981Z,16.80
2022-09-05T21:21:30.413Z,16.80
2022-09-05T21:24:17.236Z,16.80
2022-09-05T21:26:50.508Z,16.80
2022-09-05T21:29:27.547Z,16.70
2022-09-05T21:32:00.785Z,16.70
2022-09-05T21:34:32.825Z,16.70
2022-09-05T21:37:06.772Z,16.70
2022-09-05T21:39:37.807Z,16.70
2022-09-05T21:43:18.897Z,16.70
2022-09-05T21:47:35.736Z,16.70
2022-09-05T21:47:52.060Z,16.70
2022-09-05T21:50:31.021Z,16.60
2022-09-05T21:53:15.870Z,16.60
2022-09-05T21:59:18.513Z,16.60
2022-09-05T21:59:29.833Z,16.60
2022-09-05T22:01:44.637Z,16.50
2022-09-05T22:04:11.409Z,16.50
2022-09-05T22:06:38.708Z,16.50
2022-09-05T22:09:13.978Z,16.50
2022-09-05T22:11:41.888Z,16.50
2022-09-05T22:14:09.549Z,16.50
2022-09-05T22:16:44.892Z,16.40
2022-09-05T22:19:22.884Z,16.40
2022-09-05T22:21:52.089Z,16.30
2022-09-05T22:24:19.427Z,16.30
2022-09-05T22:27:11.577Z,16.30
2022-09-05T22:29:39.782Z,16.30
2022-09-05T22:32:07.508Z,16.30
2022-09-05T22:34:35.030Z,16.30
2022-09-05T22:37:02.330Z,16.30
2022-09-05T22:39:37.854Z,16.30
2022-09-05T22:42:10.676Z,16.40
2022-09-05T22:44:39.193Z,16.40
2022-09-05T22:47:10.358Z,16.40
2022-09-05T22:49:37.847Z,16.50
2022-09-05T22:52:06.495Z,16.40
2022-09-05T22:54:34.732Z,16.40
2022-09-05T22:57:02.570Z,16.40
2022-09-05T22:59:29.990Z,16.40
2022-09-05T23:01:57.281Z,16.40
2022-09-05T23:04:24.631Z,16.40
2022-09-05T23:06:51.998Z,16.30
2022-09-05T23:09:19.354Z,16.30
2022-09-05T23:11:46.666Z,16.30
2022-09-05T23:14:13.941Z,16.20
2022-09-05T23:16:41.210Z,16.20
2022-09-05T23:19:08.499Z,16.10
2022-09-05T23:21:35.759Z,16.10
2022-09-05T23:24:03.201Z,16.10
2022-09-05T23:26:30.469Z,16.00
2022-09-05T23:28:57.749Z,16.00
2022-09-05T23:31:25.205Z,16.00
2022-09-05T23:33:52.480Z,16.00
2022-09-05T23:36:19.774Z,16.00
2022-09-05T23:38:47.026Z,16.00
2022-09-05T23:41:14.863Z,16.00
2022-09-05T23:43:42.198Z,16.00
2022-09-05T23:46:09.630Z,16.00
2022-09-05T23:48:36.998Z,15.90
2022-09-05T23:51:08.913Z,15.80
2022-09-05T23:53:36.190Z,15.80
2022-09-05T23:56:04.145Z,15.80
2022-09-05T23:58:31.572Z,15.70
